Time;durP1;ratioP1;P1;durP2;ratioP2;P2;SDS_P1;SDS_P2;PMS_P1;PMS_P2;Temp;Humidity;BMP_temperature;BMP_pressure;BME280_temperature;BME280_humidity;BME280_pressure;Samples;Min_cycle;Max_cycle;Signal;HPM_P1;HPM_P2
2022/04/05 00:00:49;;;;;;;6.30;4.00;;;;;;;;;;1749730;81;21009;-70
2022/04/05 00:03:15;;;;;;;8.15;4.78;;;;;;;;;;1759802;80;21114;-70
2022/04/05 00:05:41;;;;;;;8.90;3.85;;;;;;;;;;1759062;81;21074;-71
2022/04/05 00:08:08;;;;;;;9.00;5.22;;;;;;;;;;1761742;80;21039;-70
2022/04/05 00:10:36;;;;;;;8.45;4.15;;;;;;;;;;1753289;81;21083;-70
2022/04/05 00:13:05;;;;;;;7.42;4.70;;;;;;;;;;1752781;81;21060;-71
2022/04/05 00:15:33;;;;;;;10.43;5.12;;;;;;;;;;1760090;80;21062;-70
2022/04/05 00:18:00;;;;;;;7.53;4.25;;;;;;;;;;1748357;80;21036;-70
2022/04/05 00:20:29;;;;;;;6.17;4.25;;;;;;;;;;1740632;80;21094;-70
2022/04/05 00:22:55;;;;;;;6.37;4.17;;;;;;;;;;1766824;81;21035;-70
2022/04/05 00:25:21;;;;;;;7.85;4.35;;;;;;;;;;1766715;81;21011;-70
2022/04/05 00:27:48;;;;;;;8.98;5.12;;;;;;;;;;1764158;81;21114;-71
2022/04/05 00:30:15;;;;;;;8.03;5.12;;;;;;;;;;1768134;81;21083;-70
2022/04/05 00:32:42;;;;;;;7.45;4.25;;;;;;;;;;1763402;80;21015;-69
2022/04/05 00:35:09;;;;;;;8.03;4.97;;;;;;;;;;1739151;80;21022;-69
2022/04/05 00:37:36;;;;;;;7.12;4.08;;;;;;;;;;1757219;81;21021;-70
2022/04/05 00:40:04;;;;;;;6.78;4.15;;;;;;;;;;1753775;81;21089;-70
2022/04/05 00:42:30;;;;;;;5.05;3.70;;;;;;;;;;1743219;80;21502;-69
2022/04/05 00:44:58;;;;;;;7.03;4.20;;;;;;;;;;1743731;80;21505;-69
2022/04/05 00:47:24;;;;;;;5.67;4.03;;;;;;;;;;1748519;80;21076;-69
2022/04/05 00:49:51;;;;;;;8.35;4.47;;;;;;;;;;1750655;80;21030;-69
2022/04/05 00:52:18;;;;;;;5.87;3.87;;;;;;;;;;1764884;80;21582;-69
2022/04/05 00:54:45;;;;;;;6.62;3.72;;;;;;;;;;1766997;80;21534;-69
2022/04/05 00:57:15;;;;;;;6.50;3.83;;;;;;;;;;1767073;81;21034;-69
2022/04/05 00:59:42;;;;;;;5.58;4.28;;;;;;;;;;1748335;81;21052;-70
2022/04/05 01:05:05;;;;;;;9.48;5.35;;;;;;;;;;1769613;78;21075;-70
2022/04/05 01:07:32;;;;;;;9.23;4.30;;;;;;;;;;1765434;78;22469;-71
2022/04/05 01:09:58;;;;;;;8.08;4.25;;;;;;;;;;1764778;79;21069;-70
2022/04/05 01:12:26;;;;;;;8.00;4.60;;;;;;;;;;1735899;81;21029;-70
2022/04/05 01:14:53;;;;;;;7.33;4.70;;;;;;;;;;1745512;81;21068;-70
2022/04/05 01:17:19;;;;;;;6.97;4.05;;;;;;;;;;1745567;81;21033;-69
2022/04/05 01:19:47;;;;;;;7.45;4.40;;;;;;;;;;1708329;81;21600;-70
2022/04/05 01:22:14;;;;;;;7.08;4.25;;;;;;;;;;1744461;81;21034;-69
2022/04/05 01:24:40;;;;;;;5.95;4.33;;;;;;;;;;1742955;81;21076;-69
2022/04/05 01:27:07;;;;;;;6.75;4.10;;;;;;;;;;1762083;80;21014;-69
2022/04/05 01:29:33;;;;;;;7.75;4.15;;;;;;;;;;1766713;80;21068;-69
2022/04/05 01:32:02;;;;;;;8.75;4.37;;;;;;;;;;1769232;79;21064;-70
2022/04/05 01:34:29;;;;;;;8.50;4.75;;;;;;;;;;1756894;80;21045;-69
2022/04/05 01:36:56;;;;;;;8.30;5.03;;;;;;;;;;1760659;80;21111;-69
2022/04/05 01:39:23;;;;;;;6.40;4.90;;;;;;;;;;1763477;79;21038;-69
2022/04/05 01:42:00;;;;;;;6.08;4.10;;;;;;;;;;1751387;79;21112;-69
2022/04/05 01:44:27;;;;;;;5.08;3.55;;;;;;;;;;1765397;79;21043;-68
2022/04/05 01:46:53;;;;;;;4.12;3.00;;;;;;;;;;1763448;79;21465;-68
2022/04/05 01:49:19;;;;;;;5.95;4.10;;;;;;;;;;1769961;80;21532;-69
2022/04/05 01:51:46;;;;;;;5.85;3.77;;;;;;;;;;1765375;80;21477;-69
2022/04/05 01:54:14;;;;;;;6.92;4.12;;;;;;;;;;1762256;79;21135;-68
2022/04/05 01:56:42;;;;;;;5.62;4.08;;;;;;;;;;1764245;80;21570;-70
2022/04/05 01:59:08;;;;;;;7.45;4.28;;;;;;;;;;1752601;80;21137;-69
2022/04/05 02:01:36;;;;;;;9.10;5.47;;;;;;;;;;1743723;81;21164;-69
2022/04/05 02:04:03;;;;;;;5.33;3.83;;;;;;;;;;1749859;81;21103;-70
2022/04/05 02:06:30;;;;;;;7.83;4.65;;;;;;;;;;1732944;81;21046;-69
2022/04/05 02:08:56;;;;;;;5.70;3.85;;;;;;;;;;1765762;79;21041;-70
2022/04/05 02:11:23;;;;;;;6.97;4.10;;;;;;;;;;1761739;79;21005;-69
2022/04/05 02:13:50;;;;;;;6.83;3.83;;;;;;;;;;1763433;79;21607;-69
2022/04/05 02:16:19;;;;;;;8.08;4.58;;;;;;;;;;1757801;80;21113;-70
2022/04/05 02:18:48;;;;;;;7.22;3.83;;;;;;;;;;1754515;80;21049;-70
2022/04/05 02:21:15;;;;;;;7.92;4.50;;;;;;;;;;1764824;80;21064;-70
2022/04/05 02:23:42;;;;;;;4.50;3.42;;;;;;;;;;1766574;80;21013;-69
2022/04/05 02:26:12;;;;;;;5.15;3.77;;;;;;;;;;1764146;79;21012;-69
2022/04/05 02:28:40;;;;;;;6.33;4.17;;;;;;;;;;1742188;81;21056;-69
2022/04/05 02:31:08;;;;;;;7.03;4.05;;;;;;;;;;1752421;80;21049;-69
2022/04/05 02:33:36;;;;;;;8.50;4.62;;;;;;;;;;1694992;82;21081;-68
2022/04/05 02:36:05;;;;;;;9.08;4.42;;;;;;;;;;1768003;79;21065;-68
2022/04/05 02:38:32;;;;;;;6.25;4.00;;;;;;;;;;1762117;79;21040;-68
2022/04/05 02:41:01;;;;;;;6.83;4.75;;;;;;;;;;1777382;80;21020;-68
2022/04/05 02:43:29;;;;;;;7.22;4.95;;;;;;;;;;1779347;80;21020;-71
2022/04/05 02:45:56;;;;;;;9.28;5.03;;;;;;;;;;1787271;80;21063;-69
2022/04/05 02:48:23;;;;;;;7.72;4.97;;;;;;;;;;1781462;80;21016;-68
2022/04/05 02:50:50;;;;;;;6.90;4.50;;;;;;;;;;1781190;79;21588;-68
2022/04/05 02:53:17;;;;;;;6.45;3.80;;;;;;;;;;1764473;79;21524;-69
2022/04/05 02:55:45;;;;;;;7.70;4.80;;;;;;;;;;1785533;80;21044;-68
2022/04/05 02:58:12;;;;;;;7.30;4.30;;;;;;;;;;1783049;80;21001;-68
2022/04/05 03:00:41;;;;;;;6.50;3.95;;;;;;;;;;1782895;79;21102;-67
2022/04/05 03:03:10;;;;;;;8.58;4.70;;;;;;;;;;1780600;80;21048;-68
2022/04/05 03:05:38;;;;;;;8.83;4.90;;;;;;;;;;1772744;80;21068;-69
2022/04/05 03:08:05;;;;;;;5.45;3.98;;;;;;;;;;1776893;79;21024;-69
2022/04/05 03:10:34;;;;;;;11.08;5.85;;;;;;;;;;1784943;79;20981;-68
2022/04/05 03:13:05;;;;;;;6.30;3.80;;;;;;;;;;1786682;80;21005;-68
2022/04/05 03:15:31;;;;;;;10.78;4.83;;;;;;;;;;1780025;80;20997;-69
2022/04/05 03:17:58;;;;;;;8.13;4.65;;;;;;;;;;1759197;79;21153;-70
2022/04/05 03:20:27;;;;;;;7.80;5.10;;;;;;;;;;1760628;80;21092;-68
2022/04/05 03:22:56;;;;;;;8.58;4.92;;;;;;;;;;1786301;80;21090;-69
2022/04/05 03:25:23;;;;;;;9.78;5.53;;;;;;;;;;1784389;80;21071;-68
2022/04/05 03:27:50;;;;;;;7.50;4.47;;;;;;;;;;1784259;80;21075;-68
2022/04/05 03:30:19;;;;;;;8.43;5.42;;;;;;;;;;1736420;81;21127;-68
2022/04/05 03:32:46;;;;;;;8.63;5.30;;;;;;;;;;1753669;79;21073;-68
2022/04/05 03:35:13;;;;;;;8.48;4.65;;;;;;;;;;1769695;80;20978;-68
2022/04/05 03:37:41;;;;;;;8.48;4.67;;;;;;;;;;1765159;79;21077;-69
2022/04/05 03:40:08;;;;;;;10.25;5.03;;;;;;;;;;1774730;80;21088;-69
2022/04/05 03:42:34;;;;;;;9.15;5.40;;;;;;;;;;1746683;79;21599;-69
2022/04/05 03:45:01;;;;;;;8.35;4.70;;;;;;;;;;1730484;80;21020;-69
2022/04/05 03:47:31;;;;;;;8.28;4.72;;;;;;;;;;1751634;80;21052;-69
2022/04/05 03:49:59;;;;;;;8.83;5.80;;;;;;;;;;1761248;80;21056;-69
2022/04/05 03:52:26;;;;;;;7.12;4.87;;;;;;;;;;1753494;80;21520;-69
2022/04/05 03:54:52;;;;;;;10.75;5.45;;;;;;;;;;1760764;80;21599;-69
2022/04/05 03:57:20;;;;;;;9.60;5.58;;;;;;;;;;1766010;80;21548;-68
2022/04/05 03:59:48;;;;;;;7.22;4.78;;;;;;;;;;1771563;79;21013;-68
2022/04/05 04:02:15;;;;;;;7.72;4.70;;;;;;;;;;1751631;80;21046;-68
2022/04/05 04:04:43;;;;;;;7.75;4.62;;;;;;;;;;1756472;79;21168;-68
2022/04/05 04:07:10;;;;;;;8.70;6.10;;;;;;;;;;1762635;80;21501;-69
2022/04/05 04:09:37;;;;;;;9.05;4.80;;;;;;;;;;1753479;79;21064;-70
2022/04/05 04:12:07;;;;;;;12.47;5.75;;;;;;;;;;1751069;80;21074;-68
2022/04/05 04:14:34;;;;;;;9.90;5.70;;;;;;;;;;1763801;80;21407;-68
2022/04/05 04:17:03;;;;;;;11.28;6.00;;;;;;;;;;1745318;81;21057;-69
2022/04/05 04:19:30;;;;;;;13.62;5.53;;;;;;;;;;1737567;81;21093;-68
2022/04/05 04:21:57;;;;;;;12.37;5.62;;;;;;;;;;1776013;79;21021;-68
2022/04/05 04:24:24;;;;;;;7.28;4.08;;;;;;;;;;1754718;80;21599;-68
2022/04/05 04:26:51;;;;;;;8.30;5.53;;;;;;;;;;1767327;80;21029;-68
2022/04/05 04:29:17;;;;;;;10.78;5.90;;;;;;;;;;1750977;80;21077;-68
2022/04/05 04:31:45;;;;;;;11.68;6.28;;;;;;;;;;1775346;80;21056;-68
2022/04/05 04:34:12;;;;;;;9.33;5.80;;;;;;;;;;1758263;80;21065;-69
2022/04/05 04:36:39;;;;;;;10.05;6.10;;;;;;;;;;1764484;80;21108;-69
2022/04/05 04:39:05;;;;;;;9.65;5.97;;;;;;;;;;1752683;79;21060;-69
2022/04/05 04:41:31;;;;;;;10.45;5.60;;;;;;;;;;1766236;80;21044;-69
2022/04/05 04:43:58;;;;;;;8.50;5.30;;;;;;;;;;1760838;80;21040;-69
2022/04/05 04:46:24;;;;;;;7.87;5.12;;;;;;;;;;1757306;80;21566;-69
2022/04/05 04:48:50;;;;;;;8.20;4.25;;;;;;;;;;1755999;79;21089;-71
2022/04/05 04:51:17;;;;;;;7.97;4.87;;;;;;;;;;1742834;81;21532;-70
2022/04/05 04:53:42;;;;;;;7.60;4.28;;;;;;;;;;1739846;81;21754;-70
2022/04/05 04:56:09;;;;;;;9.55;5.10;;;;;;;;;;1761573;79;20996;-70
2022/04/05 04:58:35;;;;;;;9.40;6.03;;;;;;;;;;1778341;80;21005;-70
2022/04/05 05:01:02;;;;;;;10.15;5.45;;;;;;;;;;1759357;79;21039;-70
2022/04/05 05:03:28;;;;;;;10.65;5.58;;;;;;;;;;1782888;80;21060;-70
2022/04/05 05:05:55;;;;;;;11.18;6.55;;;;;;;;;;1776461;79;20997;-69
2022/04/05 05:08:21;;;;;;;9.45;5.67;;;;;;;;;;1759487;79;21033;-69
2022/04/05 05:10:49;;;;;;;12.37;6.47;;;;;;;;;;1780012;80;21057;-69
2022/04/05 05:13:17;;;;;;;14.23;6.75;;;;;;;;;;1773984;80;21031;-69
2022/04/05 05:15:44;;;;;;;14.80;7.00;;;;;;;;;;1774791;80;21005;-69
2022/04/05 05:18:10;;;;;;;16.48;8.70;;;;;;;;;;1778419;80;21179;-69
2022/04/05 05:20:36;;;;;;;10.23;6.10;;;;;;;;;;1773290;79;21059;-69
2022/04/05 05:23:03;;;;;;;9.95;6.50;;;;;;;;;;1792915;80;21055;-68
2022/04/05 05:25:30;;;;;;;11.68;6.75;;;;;;;;;;1784212;80;21076;-69
2022/04/05 05:27:56;;;;;;;12.28;6.10;;;;;;;;;;1777180;79;21056;-69
2022/04/05 05:30:22;;;;;;;11.45;5.95;;;;;;;;;;1785063;79;21067;-69
2022/04/05 05:32:50;;;;;;;12.53;7.47;;;;;;;;;;1782395;80;21527;-69
2022/04/05 05:35:17;;;;;;;10.43;6.28;;;;;;;;;;1773768;80;21582;-69
2022/04/05 05:37:45;;;;;;;12.63;7.47;;;;;;;;;;1786507;80;21111;-69
2022/04/05 05:40:11;;;;;;;11.10;5.53;;;;;;;;;;1780370;80;20986;-68
2022/04/05 05:42:46;;;;;;;10.53;6.03;;;;;;;;;;1763122;79;21504;-69
2022/04/05 05:45:12;;;;;;;9.48;5.85;;;;;;;;;;1766884;81;21036;-69
2022/04/05 05:47:38;;;;;;;11.45;6.60;;;;;;;;;;1786763;80;21501;-69
2022/04/05 05:50:06;;;;;;;10.20;6.22;;;;;;;;;;1774134;80;21044;-69
2022/04/05 05:52:32;;;;;;;10.38;6.35;;;;;;;;;;1777281;79;21011;-69
2022/04/05 05:54:58;;;;;;;9.68;5.55;;;;;;;;;;1774207;79;21086;-69
2022/04/05 05:57:25;;;;;;;9.85;5.95;;;;;;;;;;1776113;80;21017;-69
2022/04/05 05:59:51;;;;;;;12.35;7.33;;;;;;;;;;1764328;79;21084;-69
2022/04/05 06:02:17;;;;;;;9.55;5.80;;;;;;;;;;1772600;79;21028;-69
2022/04/05 06:04:44;;;;;;;8.95;5.80;;;;;;;;;;1781356;80;21159;-69
2022/04/05 06:07:11;;;;;;;11.43;6.08;;;;;;;;;;1785393;80;21527;-69
2022/04/05 06:09:37;;;;;;;11.65;6.53;;;;;;;;;;1761303;79;21553;-69
2022/04/05 06:12:05;;;;;;;12.98;7.42;;;;;;;;;;1774140;80;21076;-69
2022/04/05 06:14:31;;;;;;;10.15;6.35;;;;;;;;;;1749225;80;21006;-69
2022/04/05 06:16:57;;;;;;;12.82;7.40;;;;;;;;;;1732746;81;21052;-69
2022/04/05 06:19:23;;;;;;;11.10;6.62;;;;;;;;;;1780395;79;21669;-69
2022/04/05 06:21:50;;;;;;;12.70;6.55;;;;;;;;;;1779440;79;21006;-69
2022/04/05 06:24:18;;;;;;;12.95;6.65;;;;;;;;;;1768855;79;21040;-69
2022/04/05 06:26:45;;;;;;;8.78;5.58;;;;;;;;;;1773657;79;21059;-69
2022/04/05 06:29:11;;;;;;;9.03;6.12;;;;;;;;;;1780144;80;21020;-69
2022/04/05 06:31:37;;;;;;;9.08;5.60;;;;;;;;;;1781238;80;21009;-70
2022/04/05 06:34:04;;;;;;;10.40;5.70;;;;;;;;;;1781029;80;21090;-69
2022/04/05 06:36:30;;;;;;;10.53;6.12;;;;;;;;;;1773298;79;21016;-69
2022/04/05 06:38:57;;;;;;;10.40;5.83;;;;;;;;;;1774195;80;21036;-69
2022/04/05 06:41:23;;;;;;;11.25;6.58;;;;;;;;;;1774238;79;21093;-70
2022/04/05 06:43:50;;;;;;;10.38;6.67;;;;;;;;;;1792993;80;21157;-70
2022/04/05 06:46:16;;;;;;;8.40;5.47;;;;;;;;;;1767855;79;21040;-70
2022/04/05 06:48:43;;;;;;;8.10;5.40;;;;;;;;;;1783029;80;21564;-70
2022/04/05 06:51:09;;;;;;;10.70;6.00;;;;;;;;;;1759546;79;21036;-70
2022/04/05 06:53:35;;;;;;;9.38;5.78;;;;;;;;;;1772507;79;21020;-70
2022/04/05 06:56:03;;;;;;;10.20;6.28;;;;;;;;;;1758932;80;21065;-70
2022/04/05 06:58:29;;;;;;;10.32;6.05;;;;;;;;;;1753285;79;21025;-69
2022/04/05 07:00:55;;;;;;;9.23;6.28;;;;;;;;;;1766432;80;21072;-71
2022/04/05 07:03:21;;;;;;;9.45;6.03;;;;;;;;;;1754742;80;21600;-70
2022/04/05 07:05:47;;;;;;;9.65;6.35;;;;;;;;;;1750936;80;21021;-70
2022/04/05 07:08:13;;;;;;;10.38;6.20;;;;;;;;;;1768184;80;20977;-70
2022/04/05 07:10:41;;;;;;;8.40;5.42;;;;;;;;;;1765806;80;21073;-70
2022/04/05 07:13:09;;;;;;;10.23;6.28;;;;;;;;;;1763782;80;21531;-70
2022/04/05 07:15:37;;;;;;;10.78;6.33;;;;;;;;;;1762285;79;21016;-70
2022/04/05 07:18:03;;;;;;;9.58;6.65;;;;;;;;;;1760990;80;21013;-70
2022/04/05 07:20:30;;;;;;;12.50;6.83;;;;;;;;;;1758609;79;21073;-69
2022/04/05 07:22:56;;;;;;;11.22;7.92;;;;;;;;;;1768924;79;21048;-70
2022/04/05 07:25:23;;;;;;;10.08;6.60;;;;;;;;;;1770096;80;21068;-70
2022/04/05 07:27:51;;;;;;;11.33;7.28;;;;;;;;;;1749650;80;21041;-70
2022/04/05 07:30:18;;;;;;;11.22;7.17;;;;;;;;;;1758746;80;21005;-70
2022/04/05 07:32:46;;;;;;;10.45;6.70;;;;;;;;;;1760657;80;21099;-70
2022/04/05 07:35:13;;;;;;;11.08;6.55;;;;;;;;;;1751264;80;21060;-70
2022/04/05 07:37:43;;;;;;;10.78;6.30;;;;;;;;;;1742444;81;21010;-70
2022/04/05 07:40:10;;;;;;;11.22;7.37;;;;;;;;;;1740825;81;21626;-70
2022/04/05 07:42:38;;;;;;;11.43;7.55;;;;;;;;;;1746467;81;21522;-70
2022/04/05 07:47:58;;;;;;;11.18;6.78;;;;;;;;;;1819686;79;22879;-69
2022/04/05 07:50:25;;;;;;;10.40;5.90;;;;;;;;;;1792847;80;21075;-69
2022/04/05 07:52:53;;;;;;;8.78;6.72;;;;;;;;;;1792763;80;21067;-69
2022/04/05 07:55:20;;;;;;;10.05;7.25;;;;;;;;;;1792717;80;21099;-70
2022/04/05 07:57:49;;;;;;;11.03;6.92;;;;;;;;;;1793248;80;21468;-69
2022/04/05 08:00:16;;;;;;;9.93;6.55;;;;;;;;;;1792916;80;21075;-70
2022/04/05 08:02:44;;;;;;;11.08;6.50;;;;;;;;;;1792814;80;21032;-69
2022/04/05 08:05:12;;;;;;;9.75;6.10;;;;;;;;;;1757974;81;21029;-69
2022/04/05 08:07:44;;;;;;;10.93;5.30;;;;;;;;;;1758012;81;21049;-69
2022/04/05 08:10:09;;;;;;;10.08;7.12;;;;;;;;;;1757446;81;21133;-69
2022/04/05 08:12:42;;;;;;;10.75;7.12;;;;;;;;;;1758446;81;21028;-69
2022/04/05 08:15:09;;;;;;;11.50;7.33;;;;;;;;;;1758051;81;21056;-69
2022/04/05 08:17:36;;;;;;;10.60;5.92;;;;;;;;;;1758309;81;21544;-69
2022/04/05 08:20:04;;;;;;;10.95;6.80;;;;;;;;;;1758151;81;21063;-68
2022/04/05 08:22:31;;;;;;;10.70;6.75;;;;;;;;;;1758427;81;21873;-69
2022/04/05 08:24:57;;;;;;;10.85;7.45;;;;;;;;;;1758183;81;21072;-68
2022/04/05 08:27:23;;;;;;;10.72;6.35;;;;;;;;;;1758385;81;21072;-68
2022/04/05 08:29:49;;;;;;;10.32;7.05;;;;;;;;;;1758200;81;21048;-68
2022/04/05 08:32:16;;;;;;;9.48;6.28;;;;;;;;;;1758551;81;21080;-69
2022/04/05 08:34:42;;;;;;;10.00;6.72;;;;;;;;;;1758198;81;21044;-69
2022/04/05 08:37:09;;;;;;;7.75;5.25;;;;;;;;;;1758056;81;21064;-69
2022/04/05 08:39:35;;;;;;;10.63;6.78;;;;;;;;;;1758416;81;21099;-69
2022/04/05 08:42:03;;;;;;;6.78;5.28;;;;;;;;;;1757917;81;21041;-69
2022/04/05 08:44:29;;;;;;;10.00;5.90;;;;;;;;;;1758449;81;21468;-69
2022/04/05 08:46:55;;;;;;;10.82;5.80;;;;;;;;;;1754512;81;21017;-69
2022/04/05 08:49:21;;;;;;;10.80;7.35;;;;;;;;;;1750163;82;21072;-69
2022/04/05 08:51:49;;;;;;;9.10;5.35;;;;;;;;;;1750230;82;22072;-69
2022/04/05 08:54:15;;;;;;;7.95;5.78;;;;;;;;;;1750341;82;21040;-69
2022/04/05 08:56:42;;;;;;;11.85;6.37;;;;;;;;;;1750049;82;21025;-70
2022/04/05 08:59:08;;;;;;;9.33;6.15;;;;;;;;;;1749870;82;21049;-70
2022/04/05 09:01:36;;;;;;;10.13;5.95;;;;;;;;;;1749434;82;21013;-69
2022/04/05 09:04:04;;;;;;;8.90;5.62;;;;;;;;;;1749477;81;21084;-68
2022/04/05 09:06:36;;;;;;;9.90;6.53;;;;;;;;;;1749487;82;21044;-68
2022/04/05 09:09:11;;;;;;;7.42;5.08;;;;;;;;;;1749371;82;21052;-69
2022/04/05 09:11:43;;;;;;;10.88;7.10;;;;;;;;;;1749660;82;21096;-68
2022/04/05 09:14:10;;;;;;;10.80;7.00;;;;;;;;;;1748755;82;21045;-68
2022/04/05 09:16:36;;;;;;;9.73;6.58;;;;;;;;;;1749712;82;21091;-68
2022/04/05 09:19:13;;;;;;;10.68;7.22;;;;;;;;;;1749500;82;21032;-69
2022/04/05 09:21:53;;;;;;;9.18;6.20;;;;;;;;;;1749431;82;21626;-69
2022/04/05 09:24:19;;;;;;;9.63;5.90;;;;;;;;;;1748643;82;21077;-68
2022/04/05 09:26:48;;;;;;;8.83;5.78;;;;;;;;;;1749512;82;21112;-68
2022/04/05 09:29:16;;;;;;;9.78;6.53;;;;;;;;;;1749436;82;21022;-68
2022/04/05 09:31:43;;;;;;;6.55;4.87;;;;;;;;;;1749531;82;21492;-68
2022/04/05 09:34:16;;;;;;;9.70;6.70;;;;;;;;;;1749883;82;21018;-68
2022/04/05 09:36:45;;;;;;;9.25;5.90;;;;;;;;;;1749579;82;21084;-69
2022/04/05 09:39:24;;;;;;;8.28;5.05;;;;;;;;;;1749793;82;21069;-69
2022/04/05 09:42:08;;;;;;;9.30;6.65;;;;;;;;;;1749696;82;21033;-68
2022/04/05 09:44:37;;;;;;;8.73;5.83;;;;;;;;;;1749755;82;21056;-70
2022/04/05 09:47:09;;;;;;;9.53;6.33;;;;;;;;;;1749314;82;21176;-71
2022/04/05 09:49:37;;;;;;;8.63;5.67;;;;;;;;;;1749793;82;21053;-70
2022/04/05 09:52:05;;;;;;;10.68;5.75;;;;;;;;;;1749533;82;21084;-70
2022/04/05 09:54:33;;;;;;;10.20;7.10;;;;;;;;;;1746389;82;21017;-70
2022/04/05 09:57:07;;;;;;;11.48;7.00;;;;;;;;;;1749722;82;21560;-70
2022/04/05 09:59:36;;;;;;;8.23;5.30;;;;;;;;;;1749662;82;21552;-68
2022/04/05 10:02:11;;;;;;;9.88;6.45;;;;;;;;;;1749684;82;21166;-69
2022/04/05 10:04:56;;;;;;;10.63;7.05;;;;;;;;;;1749561;81;21029;-70
2022/04/05 10:07:24;;;;;;;9.63;5.72;;;;;;;;;;1749837;82;21056;-69
2022/04/05 10:09:51;;;;;;;8.83;5.75;;;;;;;;;;1749478;82;21091;-69
2022/04/05 10:12:17;;;;;;;10.75;6.78;;;;;;;;;;1749676;82;21116;-69
2022/04/05 10:14:43;;;;;;;9.48;5.55;;;;;;;;;;1749656;82;21059;-70
2022/04/05 10:17:10;;;;;;;9.15;6.10;;;;;;;;;;1749397;82;21076;-69
2022/04/05 10:19:37;;;;;;;10.10;5.67;;;;;;;;;;1749782;82;21029;-69
2022/04/05 10:22:07;;;;;;;9.30;6.10;;;;;;;;;;1749661;82;21099;-69
2022/04/05 10:24:33;;;;;;;10.88;7.25;;;;;;;;;;1749647;82;21032;-69
2022/04/05 10:27:00;;;;;;;8.73;5.58;;;;;;;;;;1749714;82;21606;-69
2022/04/05 10:29:26;;;;;;;8.08;5.67;;;;;;;;;;1749450;82;21032;-69
2022/04/05 10:32:03;;;;;;;8.75;5.83;;;;;;;;;;1749527;82;21092;-69
2022/04/05 10:34:43;;;;;;;8.75;6.10;;;;;;;;;;1749616;82;21531;-69
2022/04/05 10:37:12;;;;;;;10.25;5.05;;;;;;;;;;1749649;82;21072;-69
2022/04/05 10:39:39;;;;;;;9.03;5.12;;;;;;;;;;1749299;82;21085;-69
2022/04/05 10:42:13;;;;;;;7.92;4.58;;;;;;;;;;1749609;82;21112;-70
2022/04/05 10:44:41;;;;;;;9.35;6.37;;;;;;;;;;1749524;82;21631;-68
2022/04/05 10:47:07;;;;;;;8.15;6.15;;;;;;;;;;1749563;82;21049;-68
2022/04/05 10:49:45;;;;;;;12.90;6.40;;;;;;;;;;1749578;82;21123;-68
2022/04/05 10:52:12;;;;;;;7.58;4.62;;;;;;;;;;1749306;82;21111;-71
2022/04/05 10:54:41;;;;;;;8.75;5.72;;;;;;;;;;1749696;82;21041;-70
2022/04/05 10:57:22;;;;;;;8.08;5.70;;;;;;;;;;1748804;82;21112;-68
2022/04/05 10:59:49;;;;;;;8.93;6.20;;;;;;;;;;1749690;82;21045;-68
2022/04/05 11:02:18;;;;;;;8.90;5.97;;;;;;;;;;1749360;82;21103;-69
2022/04/05 11:04:45;;;;;;;8.85;5.47;;;;;;;;;;1741637;81;21057;-68
2022/04/05 11:07:12;;;;;;;9.15;6.53;;;;;;;;;;1749364;82;21100;-70
2022/04/05 11:09:46;;;;;;;9.33;6.08;;;;;;;;;;1749426;82;21080;-69
2022/04/05 11:12:28;;;;;;;7.67;4.87;;;;;;;;;;1749534;82;21710;-68
2022/04/05 11:14:55;;;;;;;12.50;5.90;;;;;;;;;;1749560;82;21080;-70
2022/04/05 11:17:23;;;;;;;9.35;6.08;;;;;;;;;;1749625;82;21563;-70
2022/04/05 11:19:50;;;;;;;8.78;5.35;;;;;;;;;;1749980;82;21060;-68
2022/04/05 11:22:21;;;;;;;8.05;5.90;;;;;;;;;;1749536;82;21080;-70
2022/04/05 11:25:00;;;;;;;8.30;5.20;;;;;;;;;;1749810;82;21092;-69
2022/04/05 11:27:38;;;;;;;8.25;5.87;;;;;;;;;;1750018;82;21084;-69
2022/04/05 11:30:23;;;;;;;7.15;4.60;;;;;;;;;;1749514;82;21068;-71
2022/04/05 11:33:17;;;;;;;8.35;5.53;;;;;;;;;;1749792;82;21053;-70
2022/04/05 11:35:37;;;;;;;7.87;5.10;;;;;;;;;;1745417;82;21057;-69
2022/04/05 11:38:03;;;;;;;7.97;5.40;;;;;;;;;;1749727;82;21061;-68
2022/04/05 11:40:30;;;;;;;7.25;4.95;;;;;;;;;;1749659;82;21500;-68
2022/04/05 11:43:01;;;;;;;7.70;5.33;;;;;;;;;;1749654;82;21116;-70
2022/04/05 11:45:29;;;;;;;7.40;4.97;;;;;;;;;;1749650;82;21017;-71
2022/04/05 11:47:55;;;;;;;7.30;5.20;;;;;;;;;;1749440;82;21045;-70
2022/04/05 11:50:23;;;;;;;8.40;5.83;;;;;;;;;;1749704;82;21217;-70
2022/04/05 11:52:49;;;;;;;7.85;5.08;;;;;;;;;;1749548;82;21080;-70
2022/04/05 11:58:10;;;;;;;9.40;5.80;;;;;;;;;;1749229;82;21092;-70
2022/04/05 12:00:50;;;;;;;7.95;4.92;;;;;;;;;;1749703;82;21068;-70
2022/04/05 12:03:16;;;;;;;6.72;4.80;;;;;;;;;;1748951;81;21070;-68
2022/04/05 12:05:44;;;;;;;7.60;5.30;;;;;;;;;;1749618;82;21041;-70
2022/04/05 12:08:12;;;;;;;8.53;5.62;;;;;;;;;;1749396;82;21040;-70
2022/04/05 12:10:39;;;;;;;7.37;4.65;;;;;;;;;;1748654;82;20993;-71
2022/04/05 12:13:05;;;;;;;9.48;5.60;;;;;;;;;;1749626;82;21038;-68
2022/04/05 12:15:36;;;;;;;8.48;4.95;;;;;;;;;;1749667;82;21560;-68
2022/04/05 12:18:18;;;;;;;6.45;4.25;;;;;;;;;;1749600;82;21108;-69
2022/04/05 12:20:55;;;;;;;6.95;4.92;;;;;;;;;;1749601;82;21065;-69
2022/04/05 12:23:24;;;;;;;4.62;3.30;;;;;;;;;;1749721;82;21132;-69
2022/04/05 12:26:09;;;;;;;7.25;5.45;;;;;;;;;;1749375;82;21033;-68
2022/04/05 12:28:40;;;;;;;7.80;5.00;;;;;;;;;;1749620;82;21021;-69
2022/04/05 12:31:07;;;;;;;8.33;5.12;;;;;;;;;;1748770;82;21053;-69
2022/04/05 12:33:35;;;;;;;7.40;4.67;;;;;;;;;;1749660;82;21128;-69
2022/04/05 12:36:02;;;;;;;7.95;5.28;;;;;;;;;;1749533;82;21045;-69
2022/04/05 12:38:28;;;;;;;9.30;5.15;;;;;;;;;;1749512;82;21060;-69
2022/04/05 12:40:55;;;;;;;7.42;4.30;;;;;;;;;;1749554;82;21068;-69
2022/04/05 12:43:21;;;;;;;7.70;4.70;;;;;;;;;;1749800;82;21044;-69
2022/04/05 12:45:49;;;;;;;7.50;5.20;;;;;;;;;;1749897;82;21171;-70
2022/04/05 12:48:17;;;;;;;8.73;5.35;;;;;;;;;;1745339;82;21077;-70
2022/04/05 12:50:44;;;;;;;9.53;4.97;;;;;;;;;;1741612;82;21076;-70
2022/04/05 12:53:10;;;;;;;7.33;5.10;;;;;;;;;;1741595;82;21045;-70
2022/04/05 12:55:36;;;;;;;10.15;5.17;;;;;;;;;;1741683;82;21038;-70
2022/04/05 12:58:02;;;;;;;7.78;5.12;;;;;;;;;;1741893;82;21049;-71
2022/04/05 13:00:33;;;;;;;8.60;4.65;;;;;;;;;;1741663;82;21102;-72
2022/04/05 13:03:14;;;;;;;6.90;4.90;;;;;;;;;;1741813;81;21124;-69
2022/04/05 13:08:33;;;;;;;8.40;5.08;;;;;;;;;;1741608;82;22108;-69
2022/04/05 13:10:59;;;;;;;8.63;4.25;;;;;;;;;;1741929;82;21025;-69
2022/04/05 13:13:35;;;;;;;10.32;5.60;;;;;;;;;;1741638;82;21169;-69
2022/04/05 13:16:03;;;;;;;6.95;4.67;;;;;;;;;;1742008;82;21124;-69
2022/04/05 13:18:40;;;;;;;6.90;4.50;;;;;;;;;;1741611;82;21073;-70
2022/04/05 13:21:08;;;;;;;9.18;5.30;;;;;;;;;;1741756;82;21100;-70
2022/04/05 13:23:37;;;;;;;6.78;4.67;;;;;;;;;;1741525;82;21041;-70
2022/04/05 13:26:05;;;;;;;7.25;4.45;;;;;;;;;;1741749;82;21069;-70
2022/04/05 13:28:32;;;;;;;7.70;4.65;;;;;;;;;;1741630;82;21065;-69
2022/04/05 13:31:01;;;;;;;8.18;5.37;;;;;;;;;;1741501;82;21116;-70
2022/04/05 13:33:28;;;;;;;7.53;4.87;;;;;;;;;;1739368;82;21486;-69
2022/04/05 13:35:54;;;;;;;6.30;4.70;;;;;;;;;;1741629;82;21065;-70
2022/04/05 13:38:21;;;;;;;8.05;5.10;;;;;;;;;;1741592;82;21061;-70
2022/04/05 13:40:47;;;;;;;8.03;5.12;;;;;;;;;;1741619;82;21049;-70
2022/04/05 13:43:14;;;;;;;9.55;5.20;;;;;;;;;;1741638;82;21037;-69
2022/04/05 13:45:41;;;;;;;11.40;5.97;;;;;;;;;;1741809;82;21073;-70
2022/04/05 13:48:08;;;;;;;8.65;5.40;;;;;;;;;;1744392;82;21056;-70
2022/04/05 13:50:36;;;;;;;7.67;4.58;;;;;;;;;;1749598;82;21556;-69
2022/04/05 13:53:02;;;;;;;9.50;4.92;;;;;;;;;;1749572;82;21068;-69
2022/04/05 13:55:29;;;;;;;7.85;5.50;;;;;;;;;;1749542;82;21076;-69
2022/04/05 13:57:55;;;;;;;7.58;4.95;;;;;;;;;;1749701;82;21041;-69
2022/04/05 14:00:23;;;;;;;9.25;5.90;;;;;;;;;;1749561;82;21104;-69
2022/04/05 14:02:52;;;;;;;8.70;4.80;;;;;;;;;;1749741;81;21072;-69
2022/04/05 14:05:18;;;;;;;7.37;4.58;;;;;;;;;;1749392;82;21486;-69
2022/04/05 14:07:45;;;;;;;6.67;4.17;;;;;;;;;;1749652;82;21123;-70
2022/04/05 14:10:14;;;;;;;7.33;5.00;;;;;;;;;;1749600;82;21021;-70
2022/04/05 14:12:41;;;;;;;7.95;4.80;;;;;;;;;;1749424;82;21136;-70
2022/04/05 14:15:10;;;;;;;7.83;5.03;;;;;;;;;;1749774;82;21065;-70
2022/04/05 14:17:37;;;;;;;9.30;5.95;;;;;;;;;;1749774;82;21508;-70
2022/04/05 14:20:06;;;;;;;9.50;5.85;;;;;;;;;;1749439;82;21555;-70
2022/04/05 14:22:33;;;;;;;10.50;4.97;;;;;;;;;;1748735;82;21068;-70
2022/04/05 14:25:02;;;;;;;8.20;4.70;;;;;;;;;;1749600;82;21075;-70
2022/04/05 14:27:53;;;;;;;9.10;5.25;;;;;;;;;;1678631;85;73645;-70
2022/04/05 14:30:19;;;;;;;9.55;5.62;;;;;;;;;;1713149;84;21077;-69
2022/04/05 14:32:46;;;;;;;6.92;4.58;;;;;;;;;;1712982;84;21392;-69
2022/04/05 14:35:12;;;;;;;8.15;5.42;;;;;;;;;;1712936;84;21076;-69
2022/04/05 14:37:41;;;;;;;9.30;4.85;;;;;;;;;;1712942;84;21053;-70
2022/04/05 14:40:07;;;;;;;7.15;4.33;;;;;;;;;;1713234;84;21061;-70
2022/04/05 14:42:34;;;;;;;8.00;4.40;;;;;;;;;;1713155;84;21486;-70
2022/04/05 14:45:00;;;;;;;8.58;4.80;;;;;;;;;;1713268;84;21458;-69
2022/04/05 14:47:26;;;;;;;6.70;4.72;;;;;;;;;;1712659;84;21057;-70
2022/04/05 14:49:54;;;;;;;8.10;5.65;;;;;;;;;;1713086;84;21072;-70
2022/04/05 14:52:22;;;;;;;8.63;4.65;;;;;;;;;;1712766;84;21116;-70
2022/04/05 14:54:49;;;;;;;5.67;3.95;;;;;;;;;;1712793;84;21076;-70